createdAt,value
2023-03-06T00:01:01.889Z,3.83
2023-03-06T00:03:30.047Z,3.86
2023-03-06T00:05:58.876Z,3.92
2023-03-06T00:08:29.115Z,3.96
2023-03-06T00:10:57.911Z,3.92
2023-03-06T00:13:29.879Z,3.92
2023-03-06T00:16:03.190Z,3.91
2023-03-06T00:18:31.082Z,3.90
2023-03-06T00:20:59.279Z,3.90
2023-03-06T00:23:27.918Z,3.90
2023-03-06T00:25:55.874Z,3.90
2023-03-06T00:28:23.970Z,3.90
2023-03-06T00:30:51.916Z,3.92
2023-03-06T00:33:19.821Z,3.91
2023-03-06T00:35:47.748Z,3.90
2023-03-06T00:38:15.774Z,3.91
2023-03-06T00:40:43.716Z,3.92
2023-03-06T00:43:12.108Z,3.92
2023-03-06T00:45:39.967Z,3.94
2023-03-06T00:48:10.811Z,3.99
2023-03-06T00:50:38.629Z,3.97
2023-03-06T00:53:06.401Z,3.95
2023-03-06T00:55:34.377Z,3.93
2023-03-06T00:58:02.199Z,3.90
2023-03-06T01:00:30.133Z,3.89
2023-03-06T01:02:58.219Z,3.92
2023-03-06T01:05:26.610Z,3.92
2023-03-06T01:07:54.819Z,3.87
2023-03-06T01:10:23.021Z,3.82
2023-03-06T01:12:51.018Z,3.76
2023-03-06T01:15:20.029Z,3.69
2023-03-06T01:17:51.775Z,3.62
2023-03-06T01:20:19.675Z,3.58
2023-03-06T01:22:47.475Z,3.46
2023-03-06T01:25:15.404Z,3.37
2023-03-06T01:27:43.951Z,3.26
2023-03-06T01:30:13.328Z,3.18
2023-03-06T01:32:41.200Z,3.14
2023-03-06T01:35:10.026Z,3.10
2023-03-06T01:37:39.292Z,3.06
2023-03-06T01:40:11.273Z,3.04
2023-03-06T01:42:39.562Z,3.04
2023-03-06T01:45:27.588Z,3.04
2023-03-06T01:47:55.383Z,3.05
2023-03-06T01:50:23.244Z,3.06
2023-03-06T01:52:57.393Z,3.08
2023-03-06T01:55:32.529Z,3.10
2023-03-06T01:58:05.671Z,3.13
2023-03-06T02:00:33.846Z,3.15
2023-03-06T02:03:14.060Z,3.13
2023-03-06T02:05:44.146Z,3.10
2023-03-06T02:08:17.343Z,3.09
2023-03-06T02:11:11.286Z,3.04
2023-03-06T02:13:40.430Z,2.98
2023-03-06T02:16:10.192Z,2.98
2023-03-06T02:18:41.761Z,2.96
2023-03-06T02:21:13.108Z,2.95
2023-03-06T02:23:50.627Z,2.91
2023-03-06T02:26:19.704Z,2.85
2023-03-06T02:28:47.653Z,2.81
2023-03-06T02:31:28.096Z,2.76
2023-03-06T02:34:26.754Z,2.70
2023-03-06T02:37:08.886Z,2.69
2023-03-06T02:39:44.800Z,2.67
2023-03-06T02:42:25.918Z,2.62
2023-03-06T02:44:58.605Z,2.57
2023-03-06T02:47:26.563Z,2.54
2023-03-06T02:49:55.524Z,2.51
2023-03-06T02:52:23.905Z,2.49
2023-03-06T02:54:51.686Z,2.41
2023-03-06T02:57:19.764Z,2.30
2023-03-06T02:59:47.608Z,2.24
2023-03-06T03:02:16.737Z,2.18
2023-03-06T03:04:45.325Z,2.07
2023-03-06T03:07:13.433Z,2.01
2023-03-06T03:09:41.464Z,1.98
2023-03-06T03:12:09.744Z,1.96
2023-03-06T03:14:37.543Z,1.94
2023-03-06T03:17:05.547Z,1.93
2023-03-06T03:19:33.351Z,1.93
2023-03-06T03:22:01.605Z,1.93
2023-03-06T03:24:29.567Z,1.97
2023-03-06T03:26:57.626Z,2.02
2023-03-06T03:29:25.694Z,2.09
2023-03-06T03:31:53.733Z,2.15
2023-03-06T03:34:25.371Z,2.12
2023-03-06T03:36:54.733Z,2.03
2023-03-06T03:39:22.981Z,1.94
2023-03-06T03:41:50.884Z,1.88
2023-03-06T03:44:20.281Z,1.80
2023-03-06T03:46:50.745Z,1.77
2023-03-06T03:49:21.601Z,1.79
2023-03-06T03:51:49.515Z,1.72
2023-03-06T03:54:17.993Z,1.73
2023-03-06T03:56:47.275Z,1.78
2023-03-06T03:59:19.523Z,1.78
2023-03-06T04:01:56.113Z,1.80
2023-03-06T04:04:24.980Z,1.77
2023-03-06T04:06:53.751Z,1.77
2023-03-06T04:09:21.962Z,1.73
2023-03-06T04:11:50.018Z,1.71
2023-03-06T04:14:17.892Z,1.66
2023-03-06T04:16:45.893Z,1.64
2023-03-06T04:19:13.788Z,1.60
2023-03-06T04:21:41.554Z,1.47
2023-03-06T04:24:09.757Z,1.37
2023-03-06T04:26:37.610Z,1.26
2023-03-06T04:29:06.088Z,1.18
2023-03-06T04:31:34.340Z,1.16
2023-03-06T04:34:02.513Z,1.17
2023-03-06T04:36:33.532Z,1.23
2023-03-06T04:39:13.850Z,1.28
2023-03-06T04:41:42.509Z,1.34
2023-03-06T04:44:10.683Z,1.41
2023-03-06T04:46:38.792Z,1.46
2023-03-06T04:49:07.231Z,1.54
2023-03-06T04:51:36.845Z,1.59
2023-03-06T04:54:05.127Z,1.64
2023-03-06T04:56:34.432Z,1.88
2023-03-06T04:59:04.180Z,2.04
2023-03-06T05:01:32.000Z,2.16
2023-03-06T05:03:59.800Z,2.23
2023-03-06T05:06:27.671Z,2.28
2023-03-06T05:08:55.535Z,2.35
2023-03-06T05:11:23.567Z,2.42
2023-03-06T05:13:51.655Z,2.49
2023-03-06T05:16:19.466Z,2.44
2023-03-06T05:18:50.169Z,2.46
2023-03-06T05:21:18.479Z,2.49
2023-03-06T05:23:46.275Z,2.52
2023-03-06T05:26:15.912Z,2.54
2023-03-06T05:28:43.840Z,2.57
2023-03-06T05:31:12.037Z,2.59
2023-03-06T05:33:40.015Z,2.58
2023-03-06T05:36:09.769Z,2.61
2023-03-06T05:38:37.625Z,2.67
2023-03-06T05:41:05.472Z,2.67
2023-03-06T05:43:33.293Z,2.68
2023-03-06T05:46:07.082Z,2.70
2023-03-06T05:48:37.486Z,2.74
2023-03-06T05:51:06.372Z,2.76
2023-03-06T05:53:34.293Z,2.77
2023-03-06T05:56:06.452Z,2.82
2023-03-06T05:58:35.443Z,2.84
2023-03-06T06:01:11.563Z,2.84
2023-03-06T06:03:39.721Z,2.84
2023-03-06T06:06:10.666Z,2.84
2023-03-06T06:08:39.034Z,2.86
2023-03-06T06:11:09.904Z,2.88
2023-03-06T06:13:38.759Z,2.89
2023-03-06T06:16:16.465Z,2.91
2023-03-06T06:18:44.532Z,2.94
2023-03-06T06:21:14.755Z,2.93
2023-03-06T06:23:42.807Z,2.94
2023-03-06T06:26:11.238Z,2.95
2023-03-06T06:28:39.020Z,2.98
2023-03-06T06:31:12.567Z,3.03
2023-03-06T06:33:41.314Z,3.03
2023-03-06T06:36:21.821Z,2.99
2023-03-06T06:38:50.198Z,2.95
2023-03-06T06:41:53.041Z,2.94
2023-03-06T06:44:08.603Z,2.93
2023-03-06T06:49:26.306Z,2.95
2023-03-06T06:51:54.207Z,2.98
2023-03-06T06:54:22.407Z,3.02
2023-03-06T06:56:51.156Z,3.07
2023-03-06T06:59:19.256Z,3.13
2023-03-06T07:01:47.236Z,3.19
2023-03-06T07:04:15.754Z,3.27
2023-03-06T07:06:45.076Z,3.27
2023-03-06T07:09:13.605Z,3.27
2023-03-06T07:11:42.167Z,3.31
2023-03-06T07:14:09.947Z,3.36
2023-03-06T07:16:37.800Z,3.42
2023-03-06T07:19:06.778Z,3.45
2023-03-06T07:21:34.960Z,3.50
2023-03-06T07:24:02.724Z,3.56
2023-03-06T07:26:32.780Z,3.61
2023-03-06T07:29:03.899Z,3.65
2023-03-06T07:31:32.688Z,3.66
2023-03-06T07:34:01.922Z,3.61
2023-03-06T07:36:31.178Z,3.64
2023-03-06T07:38:58.951Z,3.70
2023-03-06T07:41:26.845Z,3.74
2023-03-06T07:43:54.651Z,3.87
2023-03-06T07:46:22.464Z,3.97
2023-03-06T07:48:50.240Z,4.04
2023-03-06T07:51:21.834Z,4.09
2023-03-06T07:53:50.018Z,4.14
2023-03-06T07:56:17.849Z,4.18
2023-03-06T07:58:47.873Z,4.21
2023-03-06T08:01:23.476Z,4.28
2023-03-06T08:03:52.139Z,4.35
2023-03-06T08:06:26.583Z,4.40
2023-03-06T08:08:56.440Z,4.47
2023-03-06T08:11:30.448Z,4.54
2023-03-06T08:14:00.175Z,4.63
2023-03-06T08:16:30.700Z,4.76
2023-03-06T08:18:58.957Z,4.88
2023-03-06T08:21:28.376Z,4.96
2023-03-06T08:23:56.874Z,5.06
2023-03-06T08:26:28.303Z,5.17
2023-03-06T08:28:59.157Z,5.25
2023-03-06T08:31:31.188Z,5.28
2023-03-06T08:34:04.332Z,5.30
2023-03-06T08:36:33.015Z,5.35
2023-03-06T08:39:01.263Z,5.36
2023-03-06T08:41:30.199Z,5.37
2023-03-06T08:43:58.655Z,5.38
2023-03-06T08:46:29.733Z,5.42
2023-03-06T08:48:58.170Z,5.47
2023-03-06T08:51:26.717Z,5.57
2023-03-06T08:53:56.718Z,5.66
2023-03-06T08:56:31.197Z,5.73
2023-03-06T08:59:01.588Z,5.78
2023-03-06T09:01:34.751Z,5.87
2023-03-06T09:04:07.083Z,5.99
2023-03-06T09:06:40.929Z,6.17
2023-03-06T09:09:09.520Z,6.33
2023-03-06T09:11:37.367Z,6.48
2023-03-06T09:14:06.109Z,6.61
2023-03-06T09:16:34.079Z,6.68
2023-03-06T09:19:02.062Z,6.68
2023-03-06T09:21:30.029Z,6.74
2023-03-06T09:23:59.643Z,6.82
2023-03-06T09:26:39.540Z,6.89
2023-03-06T09:29:12.621Z,6.84
2023-03-06T09:31:40.597Z,6.90
2023-03-06T09:34:08.482Z,7.02
2023-03-06T09:36:53.351Z,7.10
2023-03-06T09:39:24.362Z,7.18
2023-03-06T09:41:52.676Z,7.31
2023-03-06T09:44:26.205Z,7.41
2023-03-06T09:47:22.953Z,7.57
2023-03-06T09:49:50.770Z,7.68
2023-03-06T09:52:45.980Z,7.76
2023-03-06T09:55:27.110Z,7.84
2023-03-06T09:58:07.169Z,7.88
2023-03-06T10:00:45.619Z,7.92
2023-03-06T10:03:39.788Z,7.97
2023-03-06T10:06:22.553Z,8.05
2023-03-06T10:09:06.095Z,8.16
2023-03-06T10:11:49.521Z,8.27
2023-03-06T10:14:40.141Z,8.28
2023-03-06T10:17:17.741Z,8.34
2023-03-06T10:19:49.549Z,8.39
2023-03-06T10:23:05.386Z,8.50
2023-03-06T10:26:01.202Z,8.41
2023-03-06T10:28:46.616Z,8.42
2023-03-06T10:31:27.043Z,8.51
2023-03-06T10:34:05.294Z,8.67
2023-03-06T10:36:33.087Z,8.78
2023-03-06T10:39:14.081Z,8.93
2023-03-06T10:41:42.530Z,9.11
2023-03-06T10:44:13.491Z,9.24
2023-03-06T10:46:47.973Z,9.31
2023-03-06T10:49:30.996Z,9.38
2023-03-06T10:52:09.683Z,9.36
2023-03-06T10:54:42.286Z,9.27
2023-03-06T10:57:31.865Z,9.19
2023-03-06T11:00:05.655Z,9.27
2023-03-06T11:02:41.120Z,9.28
2023-03-06T11:05:20.832Z,9.36
2023-03-06T11:07:59.538Z,9.42
2023-03-06T11:10:30.642Z,9.50
2023-03-06T11:13:07.482Z,9.48
2023-03-06T11:15:35.952Z,9.50
2023-03-06T11:18:08.322Z,9.60
2023-03-06T11:20:52.426Z,9.74
2023-03-06T11:23:44.311Z,9.97
2023-03-06T11:26:17.999Z,10.20
2023-03-06T11:29:16.230Z,10.28
2023-03-06T11:32:14.812Z,10.34
2023-03-06T11:34:51.040Z,10.36
2023-03-06T11:37:53.991Z,10.42
2023-03-06T11:40:59.027Z,10.35
2023-03-06T11:43:37.688Z,10.26
2023-03-06T11:46:12.352Z,10.26
2023-03-06T11:48:53.510Z,10.31
2023-03-06T11:51:35.720Z,10.31
2023-03-06T11:54:04.077Z,10.31
2023-03-06T11:56:39.536Z,10.27
2023-03-06T11:59:26.476Z,10.20
2023-03-06T12:02:15.606Z,10.10
2023-03-06T12:05:01.378Z,10.06
2023-03-06T12:07:35.019Z,10.04
2023-03-06T12:10:23.954Z,10.08
2023-03-06T12:13:10.821Z,10.14
2023-03-06T12:16:22.866Z,10.18
2023-03-06T12:19:12.535Z,10.20
2023-03-06T12:21:55.706Z,10.23
2023-03-06T12:24:48.466Z,10.35
2023-03-06T12:27:47.185Z,10.53
2023-03-06T12:30:36.577Z,10.67
2023-03-06T12:33:12.945Z,10.86
2023-03-06T12:36:04.741Z,10.94
2023-03-06T12:38:59.116Z,10.87
2023-03-06T12:42:06.789Z,10.98
2023-03-06T12:44:47.489Z,11.01
2023-03-06T12:47:21.661Z,11.06
2023-03-06T12:50:17.045Z,11.28
2023-03-06T12:52:48.132Z,11.43
2023-03-06T12:55:23.122Z,11.48
2023-03-06T12:57:52.794Z,11.63
2023-03-06T13:00:32.560Z,11.62
2023-03-06T13:03:23.394Z,11.53
2023-03-06T13:06:30.981Z,11.41
2023-03-06T13:09:40.073Z,11.24
2023-03-06T13:12:38.756Z,11.16
2023-03-06T13:15:39.105Z,11.11
2023-03-06T13:18:22.232Z,10.93
2023-03-06T13:20:57.636Z,10.79
2023-03-06T13:23:37.306Z,10.75
2023-03-06T13:26:25.773Z,10.85
2023-03-06T13:28:57.822Z,11.00
2023-03-06T13:31:36.479Z,11.13
2023-03-06T13:34:31.961Z,11.25
2023-03-06T13:37:18.509Z,11.11
2023-03-06T13:39:55.308Z,11.02
2023-03-06T13:42:37.338Z,10.92
2023-03-06T13:45:08.409Z,10.76
2023-03-06T13:48:02.862Z,10.56
2023-03-06T13:50:44.657Z,10.28
2023-03-06T13:53:36.922Z,10.05
2023-03-06T13:56:34.903Z,9.87
2023-03-06T13:59:46.081Z,9.73
2023-03-06T14:02:39.668Z,9.69
2023-03-06T14:05:15.525Z,9.65
2023-03-06T14:07:47.431Z,9.57
2023-03-06T14:10:22.180Z,9.57
2023-03-06T14:12:49.923Z,9.57
2023-03-06T14:15:46.855Z,9.58
2023-03-06T14:18:30.965Z,9.60
2023-03-06T14:21:02.782Z,9.61
2023-03-06T14:23:38.108Z,9.66
2023-03-06T14:26:24.947Z,9.74
2023-03-06T14:28:52.667Z,9.82
2023-03-06T14:31:28.477Z,9.99
2023-03-06T14:34:03.411Z,10.12
2023-03-06T14:36:42.036Z,10.23
2023-03-06T14:39:36.134Z,10.24
2023-03-06T14:42:22.235Z,10.19
2023-03-06T14:45:19.895Z,10.18
2023-03-06T14:47:53.390Z,10.12
2023-03-06T14:50:34.275Z,10.15
2023-03-06T14:53:33.367Z,10.13
2023-03-06T14:56:06.779Z,10.06
2023-03-06T14:58:48.268Z,10.00
2023-03-06T15:01:16.559Z,9.89
2023-03-06T15:03:55.039Z,9.84
2023-03-06T15:06:40.363Z,9.77
2023-03-06T15:09:16.712Z,9.56
2023-03-06T15:11:53.777Z,9.37
2023-03-06T15:14:29.639Z,9.28
2023-03-06T15:17:40.586Z,9.34
2023-03-06T15:21:14.122Z,9.42
2023-03-06T15:23:45.603Z,9.36
2023-03-06T15:26:33.968Z,9.32
2023-03-06T15:29:13.783Z,9.23
2023-03-06T15:31:46.188Z,9.19
2023-03-06T15:34:23.603Z,9.29
2023-03-06T15:36:55.725Z,9.37
2023-03-06T15:39:39.904Z,9.38
2023-03-06T15:42:21.017Z,9.41
2023-03-06T15:45:03.289Z,9.44
2023-03-06T15:47:31.577Z,9.48
2023-03-06T15:49:59.309Z,9.44
2023-03-06T15:52:27.176Z,9.40
2023-03-06T15:54:55.097Z,9.32
2023-03-06T15:57:29.284Z,9.16
2023-03-06T16:00:00.207Z,8.86
2023-03-06T16:02:28.120Z,8.68
2023-03-06T16:04:56.149Z,8.51
2023-03-06T16:07:23.913Z,8.37
2023-03-06T16:09:52.155Z,8.30
2023-03-06T16:12:22.781Z,8.28
2023-03-06T16:14:50.610Z,8.26
2023-03-06T16:17:18.441Z,8.23
2023-03-06T16:19:46.236Z,8.21
2023-03-06T16:22:14.542Z,8.22
2023-03-06T16:24:43.276Z,8.23
2023-03-06T16:27:19.152Z,8.22
2023-03-06T16:29:47.036Z,8.24
2023-03-06T16:32:14.930Z,8.25
2023-03-06T16:34:42.731Z,8.25
2023-03-06T16:37:13.549Z,8.25
2023-03-06T16:39:41.477Z,8.22
2023-03-06T16:42:09.332Z,8.17
2023-03-06T16:44:37.115Z,8.11
2023-03-06T16:47:05.114Z,8.07
2023-03-06T16:49:32.913Z,8.05
2023-03-06T16:52:00.712Z,8.05
2023-03-06T16:54:28.495Z,8.01
2023-03-06T16:56:56.377Z,7.96
2023-03-06T16:59:25.242Z,7.95
2023-03-06T17:01:53.027Z,7.93
2023-03-06T17:04:20.865Z,7.92
2023-03-06T17:06:48.671Z,7.93
2023-03-06T17:09:16.746Z,7.92
2023-03-06T17:11:46.853Z,7.87
2023-03-06T17:14:14.990Z,7.80
2023-03-06T17:16:42.949Z,7.74
2023-03-06T17:19:15.227Z,7.69
2023-03-06T17:21:44.313Z,7.61
2023-03-06T17:24:12.120Z,7.54
2023-03-06T17:26:40.243Z,7.46
2023-03-06T17:29:09.546Z,7.37
2023-03-06T17:31:37.438Z,7.28
2023-03-06T17:34:05.278Z,7.20
2023-03-06T17:36:33.541Z,7.16
2023-03-06T17:39:03.392Z,7.10
2023-03-06T17:41:32.843Z,7.08
2023-03-06T17:44:01.785Z,7.05
2023-03-06T17:46:34.698Z,7.00
2023-03-06T17:49:03.383Z,6.97
2023-03-06T17:51:31.140Z,6.94
2023-03-06T17:53:58.996Z,6.91
2023-03-06T17:56:27.516Z,6.89
2023-03-06T17:58:57.167Z,6.88
2023-03-06T18:01:28.474Z,6.85
2023-03-06T18:03:58.618Z,6.83
2023-03-06T18:06:30.083Z,6.80
2023-03-06T18:08:58.453Z,6.78
2023-03-06T18:11:27.174Z,6.78
2023-03-06T18:13:55.052Z,6.78
2023-03-06T18:16:26.003Z,6.76
2023-03-06T18:18:56.472Z,6.76
2023-03-06T18:21:26.293Z,6.77
2023-03-06T18:23:54.204Z,6.78
2023-03-06T18:26:26.697Z,6.76
2023-03-06T18:28:58.238Z,6.73
2023-03-06T18:31:33.759Z,6.69
2023-03-06T18:34:09.864Z,6.69
2023-03-06T18:36:38.870Z,6.68
2023-03-06T18:39:10.281Z,6.68
2023-03-06T18:41:38.321Z,6.68
2023-03-06T18:44:06.542Z,6.67
2023-03-06T18:46:37.821Z,6.66
2023-03-06T18:49:06.763Z,6.65
2023-03-06T18:51:35.424Z,6.62
2023-03-06T18:54:05.893Z,6.61
2023-03-06T18:56:35.062Z,6.60
2023-03-06T18:59:05.069Z,6.59
2023-03-06T19:01:34.082Z,6.57
2023-03-06T19:04:04.698Z,6.56
2023-03-06T19:06:32.689Z,6.54
2023-03-06T19:09:02.144Z,6.52
2023-03-06T19:11:31.972Z,6.50
2023-03-06T19:14:00.761Z,6.48
2023-03-06T19:16:31.218Z,6.47
2023-03-06T19:18:59.354Z,6.44
2023-03-06T19:21:28.811Z,6.44
2023-03-06T19:23:57.522Z,6.42
2023-03-06T19:26:26.961Z,6.41
2023-03-06T19:28:55.114Z,6.38
2023-03-06T19:31:27.053Z,6.35
2023-03-06T19:33:56.830Z,6.32
2023-03-06T19:36:33.283Z,6.31
2023-03-06T19:39:05.125Z,6.30
2023-03-06T19:41:33.661Z,6.29
2023-03-06T19:44:03.340Z,6.28
2023-03-06T19:46:32.216Z,6.28
2023-03-06T19:49:09.940Z,6.27
2023-03-06T19:51:38.523Z,6.27
2023-03-06T19:54:06.307Z,6.25
2023-03-06T19:56:34.131Z,6.19
2023-03-06T19:59:02.129Z,6.17
2023-03-06T20:01:29.991Z,6.17
2023-03-06T20:03:59.776Z,6.18
2023-03-06T20:06:33.576Z,6.15
2023-03-06T20:09:06.032Z,6.11
2023-03-06T20:11:34.267Z,6.13
2023-03-06T20:14:04.705Z,6.13
2023-03-06T20:16:34.205Z,6.11
2023-03-06T20:19:02.532Z,6.11
2023-03-06T20:21:35.373Z,6.13
2023-03-06T20:24:05.271Z,6.11
2023-03-06T20:26:34.778Z,6.11
2023-03-06T20:29:03.196Z,6.12
2023-03-06T20:31:31.103Z,6.11
2023-03-06T20:34:00.507Z,6.14
2023-03-06T20:36:35.985Z,6.13
2023-03-06T20:39:08.998Z,6.12
2023-03-06T20:41:37.945Z,6.12
2023-03-06T20:44:13.412Z,6.11
2023-03-06T20:46:41.983Z,6.11
2023-03-06T20:49:13.264Z,6.13
2023-03-06T20:51:42.342Z,6.12
2023-03-06T20:54:13.982Z,6.19
2023-03-06T20:56:46.028Z,6.22
2023-03-06T20:59:14.326Z,6.21
2023-03-06T21:01:45.056Z,6.17
2023-03-06T21:04:14.813Z,6.20
2023-03-06T21:06:46.772Z,6.21
2023-03-06T21:09:17.078Z,6.17
2023-03-06T21:11:45.937Z,6.17
2023-03-06T21:14:14.966Z,6.19
2023-03-06T21:16:43.931Z,6.18
2023-03-06T21:19:12.487Z,6.25
2023-03-06T21:21:40.358Z,6.24
2023-03-06T21:24:08.538Z,6.24
2023-03-06T21:26:36.441Z,6.25
2023-03-06T21:29:05.092Z,6.27
2023-03-06T21:31:33.559Z,6.26
2023-03-06T21:34:04.524Z,6.25
2023-03-06T21:36:34.068Z,6.27
2023-03-06T21:39:02.269Z,6.26
2023-03-06T21:41:32.174Z,6.30
2023-03-06T21:44:04.975Z,6.32
2023-03-06T21:46:34.810Z,6.32
2023-03-06T21:49:05.244Z,6.32
2023-03-06T21:51:34.414Z,6.31
2023-03-06T21:54:02.897Z,6.30
2023-03-06T21:56:33.055Z,6.27
2023-03-06T21:59:01.345Z,6.25
2023-03-06T22:01:30.184Z,6.26
2023-03-06T22:03:59.940Z,6.28
2023-03-06T22:06:30.196Z,6.33
2023-03-06T22:09:00.301Z,6.40
2023-03-06T22:11:31.404Z,6.43
2023-03-06T22:13:59.648Z,6.41
2023-03-06T22:16:28.206Z,6.43
2023-03-06T22:18:56.432Z,6.43
2023-03-06T22:21:25.242Z,6.42
2023-03-06T22:23:59.392Z,6.40
2023-03-06T22:26:29.206Z,6.42
2023-03-06T22:28:57.178Z,6.42
2023-03-06T22:31:28.535Z,6.39
2023-03-06T22:34:00.067Z,6.36
2023-03-06T22:36:32.813Z,6.35
2023-03-06T22:39:02.752Z,6.30
2023-03-06T22:41:31.266Z,6.23
2023-03-06T22:44:02.510Z,6.17
2023-03-06T22:46:32.244Z,6.14
2023-03-06T22:49:01.289Z,6.12
2023-03-06T22:51:29.748Z,6.14
2023-03-06T22:53:58.256Z,6.13
2023-03-06T22:56:26.318Z,6.11
2023-03-06T22:58:54.258Z,6.08
2023-03-06T23:01:25.868Z,6.08
2023-03-06T23:03:58.001Z,6.06
2023-03-06T23:06:31.526Z,6.06
2023-03-06T23:09:07.566Z,6.08
2023-03-06T23:11:53.624Z,6.07
2023-03-06T23:14:40.267Z,6.06
2023-03-06T23:17:26.904Z,6.09
2023-03-06T23:20:13.740Z,6.10
2023-03-06T23:23:00.221Z,6.13
2023-03-06T23:25:44.298Z,6.12
2023-03-06T23:28:12.343Z,6.12
2023-03-06T23:30:42.209Z,6.09
2023-03-06T23:33:11.072Z,6.07
2023-03-06T23:35:39.116Z,6.03
2023-03-06T23:38:07.206Z,5.83
2023-03-06T23:40:35.336Z,5.69
2023-03-06T23:43:03.864Z,5.58
2023-03-06T23:45:32.318Z,5.54
2023-03-06T23:48:00.236Z,5.59
2023-03-06T23:50:28.124Z,5.59
2023-03-06T23:52:55.916Z,5.53
2023-03-06T23:55:23.735Z,5.48
2023-03-06T23:57:51.663Z,5.44
